createdAt,value
2018-03-14T00:00:19.214Z,6.70
2018-03-14T00:02:45.449Z,6.70
2018-03-14T00:05:11.686Z,6.60
2018-03-14T00:07:38.849Z,6.60
2018-03-14T00:10:05.075Z,6.60
2018-03-14T00:12:33.142Z,6.60
2018-03-14T00:14:59.384Z,6.70
2018-03-14T00:17:25.598Z,6.60
2018-03-14T00:19:51.841Z,6.60
2018-03-14T00:22:30.240Z,6.50
2018-03-14T00:24:56.519Z,6.50
2018-03-14T00:27:22.700Z,6.60
2018-03-14T00:29:48.941Z,6.60
2018-03-14T00:32:15.172Z,6.60
2018-03-14T00:34:41.396Z,6.60
2018-03-14T00:37:07.620Z,6.50
2018-03-14T00:39:33.885Z,6.50
2018-03-14T00:42:00.131Z,6.50
2018-03-14T00:44:26.742Z,6.10
2018-03-14T00:46:53.004Z,6.10
2018-03-14T00:49:19.595Z,6.50
2018-03-14T00:51:45.800Z,6.50
2018-03-14T00:54:12.029Z,6.60
2018-03-14T00:56:38.233Z,6.60
2018-03-14T00:59:04.462Z,6.70
2018-03-14T01:01:30.691Z,6.80
2018-03-14T01:03:56.944Z,6.70
2018-03-14T01:06:23.189Z,6.70
2018-03-14T01:08:49.410Z,6.90
2018-03-14T01:11:15.654Z,6.90
2018-03-14T01:13:41.865Z,7.10
2018-03-14T01:16:08.065Z,7.00
2018-03-14T01:18:34.335Z,7.00
2018-03-14T01:21:00.597Z,6.80
2018-03-14T01:23:27.190Z,6.70
2018-03-14T01:25:53.445Z,6.70
2018-03-14T01:28:19.679Z,6.70
2018-03-14T01:30:45.916Z,6.70
2018-03-14T01:33:12.773Z,6.80
2018-03-14T01:35:39.005Z,6.80
2018-03-14T01:38:05.235Z,6.80
2018-03-14T01:40:31.488Z,6.70
2018-03-14T01:42:57.677Z,7.00
2018-03-14T01:45:24.282Z,6.80
2018-03-14T01:47:50.524Z,6.80
2018-03-14T01:50:16.749Z,6.90
2018-03-14T01:52:42.969Z,6.80
2018-03-14T01:55:09.215Z,6.90
2018-03-14T01:57:35.832Z,6.80
2018-03-14T02:00:02.698Z,6.80
2018-03-14T02:02:29.322Z,6.60
2018-03-14T02:04:55.539Z,6.70
2018-03-14T02:07:21.760Z,6.70
2018-03-14T02:09:47.995Z,6.60
2018-03-14T02:12:14.229Z,6.70
2018-03-14T02:14:41.039Z,6.90
2018-03-14T02:17:07.273Z,7.10
2018-03-14T02:19:33.509Z,7.10
2018-03-14T02:21:59.763Z,7.10
2018-03-14T02:24:26.395Z,7.10
2018-03-14T02:26:52.641Z,7.00
2018-03-14T02:29:19.266Z,7.10
2018-03-14T02:31:45.511Z,7.10
2018-03-14T02:34:12.102Z,7.20
2018-03-14T02:37:01.298Z,7.20
2018-03-14T02:39:27.513Z,7.10
2018-03-14T02:41:54.474Z,7.00
2018-03-14T02:44:20.712Z,6.90
2018-03-14T02:46:46.911Z,6.80
2018-03-14T02:49:13.118Z,6.90
2018-03-14T02:51:39.365Z,7.00
2018-03-14T02:54:06.811Z,7.00
2018-03-14T02:56:33.022Z,6.80
2018-03-14T02:58:59.220Z,6.70
2018-03-14T03:01:25.805Z,6.80
2018-03-14T03:03:52.014Z,6.80
2018-03-14T03:06:18.226Z,6.70
2018-03-14T03:08:44.456Z,6.70
2018-03-14T03:11:11.613Z,6.70
2018-03-14T03:13:37.809Z,6.80
2018-03-14T03:16:04.429Z,7.00
2018-03-14T03:18:30.640Z,7.10
2018-03-14T03:20:56.838Z,7.20
2018-03-14T03:23:23.348Z,7.30
2018-03-14T03:25:49.936Z,7.20
2018-03-14T03:28:16.126Z,7.20
2018-03-14T03:30:42.389Z,7.10
2018-03-14T03:33:08.599Z,7.20
2018-03-14T03:35:34.858Z,7.30
2018-03-14T03:38:01.063Z,7.10
2018-03-14T03:40:27.857Z,7.10
2018-03-14T03:42:54.045Z,7.10
2018-03-14T03:45:20.276Z,7.20
2018-03-14T03:47:46.464Z,7.40
2018-03-14T03:50:12.695Z,7.30
2018-03-14T03:52:38.944Z,7.20
2018-03-14T03:55:05.196Z,7.50
2018-03-14T03:57:31.389Z,7.40
2018-03-14T03:59:57.619Z,7.40
2018-03-14T04:02:23.836Z,7.30
2018-03-14T04:04:50.072Z,7.30
2018-03-14T04:07:16.256Z,7.10
2018-03-14T04:09:42.873Z,7.00
2018-03-14T04:12:09.055Z,6.90
2018-03-14T04:14:35.885Z,6.80
2018-03-14T04:17:02.119Z,6.80
2018-03-14T04:19:28.324Z,6.80
2018-03-14T04:21:54.922Z,6.70
2018-03-14T04:24:21.109Z,6.70
2018-03-14T04:26:47.333Z,6.60
2018-03-14T04:29:13.525Z,6.60
2018-03-14T04:31:39.779Z,6.80
2018-03-14T04:34:06.348Z,7.10
2018-03-14T04:36:32.573Z,7.10
2018-03-14T04:38:58.763Z,7.20
2018-03-14T04:41:25.337Z,7.40
2018-03-14T04:43:51.567Z,7.40
2018-03-14T04:46:17.805Z,7.50
2018-03-14T04:48:44.010Z,7.50
2018-03-14T04:51:10.240Z,7.30
2018-03-14T04:53:36.439Z,7.40
2018-03-14T04:56:03.017Z,7.40
2018-03-14T04:58:29.293Z,7.40
2018-03-14T05:00:55.492Z,7.50
2018-03-14T05:03:21.697Z,7.60
2018-03-14T05:05:47.944Z,7.60
2018-03-14T05:08:14.166Z,7.50
2018-03-14T05:10:40.362Z,7.40
2018-03-14T05:13:06.583Z,7.40
2018-03-14T05:15:32.788Z,7.60
2018-03-14T05:17:59.045Z,7.70
2018-03-14T05:20:25.293Z,7.70
2018-03-14T05:22:51.524Z,7.60
2018-03-14T05:25:18.473Z,7.70
2018-03-14T05:27:44.723Z,7.60
2018-03-14T05:30:10.965Z,7.40
2018-03-14T05:32:37.196Z,7.30
2018-03-14T05:35:03.419Z,7.40
2018-03-14T05:37:29.629Z,7.40
2018-03-14T05:39:55.881Z,7.20
2018-03-14T05:42:22.085Z,7.10
2018-03-14T05:44:48.304Z,7.10
2018-03-14T05:47:14.512Z,7.10
2018-03-14T05:49:40.718Z,7.20
2018-03-14T05:52:07.394Z,7.30
2018-03-14T05:54:33.577Z,7.30
2018-03-14T05:57:00.160Z,7.30
2018-03-14T05:59:26.374Z,7.30
2018-03-14T06:01:52.584Z,7.30
2018-03-14T06:04:18.825Z,7.20
2018-03-14T06:06:45.360Z,7.10
2018-03-14T06:09:11.616Z,7.20
2018-03-14T06:11:37.843Z,7.20
2018-03-14T06:14:04.088Z,7.20
2018-03-14T06:16:30.284Z,7.20
2018-03-14T06:18:56.529Z,7.40
2018-03-14T06:21:22.758Z,7.20
2018-03-14T06:23:48.996Z,7.10
2018-03-14T06:26:15.224Z,7.00
2018-03-14T06:28:41.515Z,7.10
2018-03-14T06:31:08.619Z,7.20
2018-03-14T06:33:34.831Z,7.40
2018-03-14T06:36:01.322Z,7.40
2018-03-14T06:38:27.528Z,7.50
2018-03-14T06:40:54.102Z,7.40
2018-03-14T06:43:20.569Z,7.50
2018-03-14T06:45:47.940Z,7.30
2018-03-14T06:48:14.560Z,7.40
2018-03-14T06:50:40.821Z,7.40
2018-03-14T06:53:07.049Z,7.30
2018-03-14T06:55:33.331Z,7.30
2018-03-14T06:57:59.599Z,7.60
2018-03-14T07:00:38.310Z,7.70
2018-03-14T07:03:17.088Z,7.70
2018-03-14T07:06:08.200Z,7.70
2018-03-14T07:08:34.450Z,7.80
2018-03-14T07:11:00.702Z,7.60
2018-03-14T07:13:27.294Z,7.60
2018-03-14T07:15:53.787Z,7.60
2018-03-14T07:18:20.423Z,7.80
2018-03-14T07:20:47.034Z,7.90
2018-03-14T07:23:13.363Z,7.90
2018-03-14T07:25:40.521Z,8.10
2018-03-14T07:28:06.761Z,8.20
2018-03-14T07:30:34.290Z,8.30
2018-03-14T07:33:00.792Z,8.30
2018-03-14T07:35:27.031Z,8.60
2018-03-14T07:37:53.263Z,8.80
2018-03-14T07:40:19.519Z,8.90
2018-03-14T07:42:45.746Z,8.90
2018-03-14T07:45:11.979Z,9.10
2018-03-14T07:47:38.226Z,8.90
2018-03-14T07:50:04.828Z,8.70
2018-03-14T07:52:31.047Z,8.70
2018-03-14T07:54:57.332Z,8.80
2018-03-14T07:57:24.175Z,8.70
2018-03-14T07:59:50.930Z,8.70
2018-03-14T08:02:17.203Z,8.80
2018-03-14T08:04:43.436Z,9.10
2018-03-14T08:07:09.646Z,9.10
2018-03-14T08:09:35.947Z,9.30
2018-03-14T08:12:02.745Z,9.20
2018-03-14T08:14:29.341Z,9.50
2018-03-14T08:16:55.588Z,9.50
2018-03-14T08:19:21.813Z,9.50
2018-03-14T08:21:48.096Z,9.50
2018-03-14T08:24:15.169Z,9.30
2018-03-14T08:26:41.744Z,9.40
2018-03-14T08:29:07.998Z,9.30
2018-03-14T08:31:34.230Z,9.20
2018-03-14T08:34:00.510Z,9.00
2018-03-14T08:36:26.799Z,8.80
2018-03-14T08:38:53.044Z,8.70
2018-03-14T08:41:19.297Z,8.70
2018-03-14T08:43:45.538Z,8.60
2018-03-14T08:46:11.777Z,8.50
2018-03-14T08:48:38.028Z,8.70
2018-03-14T08:51:04.604Z,8.90
2018-03-14T08:53:30.865Z,8.90
2018-03-14T08:55:57.149Z,9.00
2018-03-14T08:58:30.243Z,9.10
2018-03-14T09:00:56.464Z,9.10
2018-03-14T09:03:23.153Z,9.10
2018-03-14T09:05:49.380Z,9.20
2018-03-14T09:08:15.619Z,9.00
2018-03-14T09:10:42.247Z,8.90
2018-03-14T09:13:08.509Z,8.80
2018-03-14T09:15:34.733Z,8.70
2018-03-14T09:18:00.978Z,8.70
2018-03-14T09:20:27.206Z,9.00
2018-03-14T09:22:53.454Z,9.20
2018-03-14T09:25:19.665Z,9.40
2018-03-14T09:27:45.905Z,9.50
2018-03-14T09:30:12.134Z,9.40
2018-03-14T09:32:38.401Z,9.40
2018-03-14T09:35:04.952Z,9.30
2018-03-14T09:37:31.622Z,9.40
2018-03-14T09:39:57.834Z,9.40
2018-03-14T09:42:24.433Z,9.60
2018-03-14T09:44:50.677Z,9.60
2018-03-14T09:47:17.251Z,9.70
2018-03-14T09:49:43.484Z,9.60
2018-03-14T09:52:10.447Z,9.50
2018-03-14T09:54:36.674Z,9.50
2018-03-14T09:57:02.960Z,9.60
2018-03-14T09:59:29.574Z,9.50
2018-03-14T10:01:55.865Z,9.50
2018-03-14T10:04:22.091Z,9.70
2018-03-14T10:06:48.353Z,9.80
2018-03-14T10:09:14.623Z,9.90
2018-03-14T10:11:41.225Z,9.80
2018-03-14T10:14:07.573Z,9.80
2018-03-14T10:16:33.785Z,10.10
2018-03-14T10:19:00.001Z,10.30
2018-03-14T10:21:26.707Z,10.70
2018-03-14T10:23:52.989Z,11.00
2018-03-14T10:26:19.219Z,11.00
2018-03-14T10:28:46.443Z,11.20
2018-03-14T10:31:12.673Z,11.50
2018-03-14T10:33:38.945Z,11.60
2018-03-14T10:36:05.224Z,11.50
2018-03-14T10:38:32.239Z,11.10
2018-03-14T10:40:58.474Z,11.00
2018-03-14T10:43:24.738Z,11.20
2018-03-14T10:45:52.033Z,11.30
2018-03-14T10:48:18.668Z,15.40
2018-03-14T10:50:45.318Z,16.70
2018-03-14T10:53:12.481Z,16.70
2018-03-14T10:55:38.721Z,18.70
2018-03-14T10:58:05.025Z,19.80
2018-03-14T11:00:37.374Z,21.00
2018-03-14T11:03:03.652Z,20.60
2018-03-14T11:05:29.933Z,20.00
2018-03-14T11:07:56.191Z,20.20
2018-03-14T11:10:22.451Z,20.00
2018-03-14T11:12:48.705Z,23.30
2018-03-14T11:15:21.959Z,26.10
2018-03-14T11:17:48.914Z,27.50
2018-03-14T11:20:15.177Z,26.30
2018-03-14T11:22:41.415Z,26.00
2018-03-14T11:25:08.006Z,22.40
2018-03-14T11:27:34.246Z,22.50
2018-03-14T11:30:01.111Z,20.80
2018-03-14T11:32:27.384Z,18.50
2018-03-14T11:34:53.675Z,16.20
2018-03-14T11:37:19.903Z,15.20
2018-03-14T11:39:46.458Z,16.00
2018-03-14T11:42:13.050Z,16.90
2018-03-14T11:44:39.326Z,16.90
2018-03-14T11:47:05.589Z,17.10
2018-03-14T11:49:31.857Z,17.20
2018-03-14T11:51:58.126Z,16.70
2018-03-14T11:54:24.381Z,16.40
2018-03-14T11:56:50.623Z,15.70
2018-03-14T11:59:16.886Z,14.80
2018-03-14T12:01:43.494Z,14.20
2018-03-14T12:04:09.777Z,14.20
2018-03-14T12:06:37.006Z,15.00
2018-03-14T12:09:03.684Z,18.40
2018-03-14T12:11:29.963Z,18.40
2018-03-14T12:13:56.239Z,21.80
2018-03-14T12:16:22.474Z,25.50
2018-03-14T12:18:48.704Z,28.90
2018-03-14T12:21:15.639Z,31.00
2018-03-14T12:23:41.851Z,32.00
2018-03-14T12:26:08.461Z,34.00
2018-03-14T12:28:35.091Z,34.60
2018-03-14T12:31:01.347Z,34.60
2018-03-14T12:33:27.998Z,33.00
2018-03-14T12:35:54.239Z,33.00
2018-03-14T12:38:20.486Z,31.20
2018-03-14T12:40:46.723Z,27.60
2018-03-14T12:43:12.932Z,24.50
2018-03-14T12:45:39.170Z,21.70
2018-03-14T12:48:05.411Z,19.90
2018-03-14T12:50:31.722Z,19.70
2018-03-14T12:52:57.949Z,20.30
2018-03-14T12:55:24.290Z,19.50
2018-03-14T12:57:50.542Z,18.60
2018-03-14T13:00:16.818Z,19.10
2018-03-14T13:02:43.036Z,20.00
2018-03-14T13:05:09.306Z,22.00
2018-03-14T13:07:35.666Z,23.80
2018-03-14T13:10:01.926Z,24.80
2018-03-14T13:12:28.143Z,24.90
2018-03-14T13:14:54.809Z,24.90
2018-03-14T13:17:21.024Z,24.90
2018-03-14T13:19:47.258Z,25.00
2018-03-14T13:22:13.566Z,24.70
2018-03-14T13:24:39.836Z,24.20
2018-03-14T13:27:06.069Z,23.40
2018-03-14T13:29:32.298Z,23.10
2018-03-14T13:31:58.549Z,23.10
2018-03-14T13:34:24.842Z,22.60
2018-03-14T13:36:51.140Z,22.40
2018-03-14T13:39:17.826Z,22.90
2018-03-14T13:41:44.120Z,22.90
2018-03-14T13:44:10.413Z,23.30
2018-03-14T13:46:36.664Z,23.20
2018-03-14T13:49:02.942Z,22.90
2018-03-14T13:51:29.231Z,22.30
2018-03-14T13:53:55.521Z,22.30
2018-03-14T13:56:21.770Z,22.40
2018-03-14T13:58:48.437Z,22.30
2018-03-14T14:01:14.754Z,22.30
2018-03-14T14:03:41.391Z,22.20
2018-03-14T14:06:07.986Z,22.80
2018-03-14T14:08:34.254Z,22.80
2018-03-14T14:11:00.874Z,22.50
2018-03-14T14:13:27.456Z,22.30
2018-03-14T14:15:53.667Z,22.30
2018-03-14T14:18:19.940Z,21.90
2018-03-14T14:20:46.188Z,20.60
2018-03-14T14:23:12.436Z,19.70
2018-03-14T14:25:38.682Z,20.00
2018-03-14T14:28:04.913Z,20.60
2018-03-14T14:30:31.151Z,21.40
2018-03-14T14:32:57.381Z,21.40
2018-03-14T14:35:23.603Z,21.00
2018-03-14T14:37:49.855Z,20.20
2018-03-14T14:40:16.114Z,19.60
2018-03-14T14:42:42.388Z,18.70
2018-03-14T14:45:08.608Z,18.20
2018-03-14T14:47:34.871Z,17.50
2018-03-14T14:50:01.138Z,17.10
2018-03-14T14:52:27.727Z,17.30
2018-03-14T14:54:53.957Z,17.30
2018-03-14T14:57:20.796Z,17.60
2018-03-14T14:59:47.100Z,17.70
2018-03-14T15:02:13.337Z,17.90
2018-03-14T15:04:39.580Z,17.90
2018-03-14T15:07:05.809Z,18.60
2018-03-14T15:09:32.691Z,19.00
2018-03-14T15:11:58.938Z,19.40
2018-03-14T15:14:26.368Z,19.90
2018-03-14T15:16:52.585Z,19.90
2018-03-14T15:19:18.817Z,20.10
2018-03-14T15:21:45.089Z,20.30
2018-03-14T15:24:11.350Z,20.30
2018-03-14T15:26:37.661Z,19.90
2018-03-14T15:29:03.901Z,19.80
2018-03-14T15:31:30.253Z,19.40
2018-03-14T15:33:56.933Z,19.00
2018-03-14T15:36:23.550Z,18.60
2018-03-14T15:38:49.776Z,18.60
2018-03-14T15:41:16.041Z,18.30
2018-03-14T15:43:42.263Z,18.10
2018-03-14T15:46:08.866Z,17.80
2018-03-14T15:48:35.163Z,17.80
2018-03-14T15:51:01.386Z,17.90
2018-03-14T15:53:27.651Z,17.70
2018-03-14T15:55:53.880Z,17.60
2018-03-14T15:58:20.121Z,17.50
2018-03-14T16:00:46.370Z,17.10
2018-03-14T16:03:12.900Z,16.80
2018-03-14T16:05:39.533Z,16.40
2018-03-14T16:08:06.152Z,16.40
2018-03-14T16:10:32.417Z,16.40
2018-03-14T16:12:58.728Z,16.30
2018-03-14T16:15:25.386Z,16.00
2018-03-14T16:17:51.667Z,16.00
2018-03-14T16:20:18.245Z,15.60
2018-03-14T16:22:44.464Z,15.50
2018-03-14T16:25:11.120Z,15.10
2018-03-14T16:27:37.386Z,15.10
2018-03-14T16:30:03.682Z,14.90
2018-03-14T16:32:29.944Z,14.60
2018-03-14T16:34:56.178Z,14.40
2018-03-14T16:37:22.420Z,14.10
2018-03-14T16:39:51.925Z,13.90
2018-03-14T16:42:18.202Z,14.00
2018-03-14T16:44:44.484Z,13.80
2018-03-14T16:47:10.773Z,13.70
2018-03-14T16:49:37.373Z,13.50
2018-03-14T16:52:04.087Z,13.30
2018-03-14T16:54:30.390Z,13.30
2018-03-14T16:56:57.004Z,13.20
2018-03-14T16:59:23.290Z,12.90
2018-03-14T17:01:49.531Z,12.60
2018-03-14T17:04:16.194Z,12.30
2018-03-14T17:06:42.455Z,12.30
2018-03-14T17:09:08.715Z,12.30
2018-03-14T17:11:34.985Z,12.20
2018-03-14T17:14:01.307Z,12.00
2018-03-14T17:16:27.532Z,12.00
2018-03-14T17:18:54.203Z,11.70
2018-03-14T17:21:20.434Z,11.70
2018-03-14T17:23:46.667Z,11.60
2018-03-14T17:26:13.252Z,11.40
2018-03-14T17:28:39.831Z,11.10
2018-03-14T17:31:06.074Z,11.10
2018-03-14T17:33:32.729Z,10.90
2018-03-14T17:36:00.315Z,10.90
2018-03-14T17:38:26.541Z,10.70
2018-03-14T17:40:52.806Z,10.50
2018-03-14T17:43:19.084Z,10.40
2018-03-14T17:45:45.331Z,10.20
2018-03-14T17:48:12.669Z,10.00
2018-03-14T17:50:38.865Z,10.10
2018-03-14T17:53:05.073Z,10.00
2018-03-14T17:55:31.340Z,9.90
2018-03-14T17:57:57.574Z,9.80
2018-03-14T18:00:23.844Z,9.70
2018-03-14T18:02:50.086Z,9.70
2018-03-14T18:05:16.317Z,9.70
2018-03-14T18:07:42.606Z,9.60
2018-03-14T18:10:09.213Z,9.50
2018-03-14T18:12:35.489Z,9.50
2018-03-14T18:15:02.191Z,9.50
2018-03-14T18:17:28.405Z,9.50
2018-03-14T18:19:54.655Z,9.40
2018-03-14T18:22:20.892Z,9.40
2018-03-14T18:24:47.113Z,9.20
2018-03-14T18:27:13.374Z,9.10
2018-03-14T18:29:39.595Z,9.10
2018-03-14T18:32:06.773Z,9.00
2018-03-14T18:34:33.006Z,8.90
2018-03-14T18:36:59.235Z,8.90
2018-03-14T18:39:25.540Z,8.90
2018-03-14T18:41:52.166Z,8.70
2018-03-14T18:44:18.494Z,8.70
2018-03-14T18:46:45.538Z,8.50
2018-03-14T18:49:12.144Z,8.60
2018-03-14T18:51:38.427Z,8.60
2018-03-14T18:54:05.096Z,8.70
2018-03-14T18:56:31.391Z,8.70
2018-03-14T18:58:57.691Z,8.60
2018-03-14T19:01:24.371Z,8.60
2018-03-14T19:03:50.651Z,8.60
2018-03-14T19:06:17.830Z,8.50
2018-03-14T19:08:44.135Z,8.60
2018-03-14T19:11:10.400Z,8.50
2018-03-14T19:13:36.770Z,8.40
2018-03-14T19:16:03.130Z,8.30
2018-03-14T19:18:29.354Z,8.20
2018-03-14T19:20:55.720Z,8.10
2018-03-14T19:23:22.272Z,8.00
2018-03-14T19:25:48.535Z,7.80
2018-03-14T19:28:15.361Z,7.70
2018-03-14T19:30:41.634Z,7.60
2018-03-14T19:33:07.923Z,7.50
2018-03-14T19:35:34.196Z,7.40
2018-03-14T19:38:02.449Z,7.30
2018-03-14T19:40:28.672Z,7.30
2018-03-14T19:42:54.966Z,7.20
2018-03-14T19:45:21.213Z,7.20
2018-03-14T19:47:47.457Z,7.20
2018-03-14T19:50:13.662Z,7.30
2018-03-14T19:52:39.951Z,7.30
2018-03-14T19:55:06.226Z,7.30
2018-03-14T19:57:32.517Z,7.30
2018-03-14T19:59:58.818Z,7.30
2018-03-14T20:02:25.066Z,7.30
2018-03-14T20:04:51.661Z,7.20
2018-03-14T20:07:17.922Z,7.20
2018-03-14T20:09:44.182Z,7.20
2018-03-14T20:12:10.467Z,7.30
2018-03-14T20:14:36.733Z,7.30
2018-03-14T20:17:02.977Z,7.30
2018-03-14T20:19:29.255Z,7.20
2018-03-14T20:21:55.536Z,7.20
2018-03-14T20:24:21.775Z,7.10
2018-03-14T20:26:48.038Z,7.00
2018-03-14T20:29:14.269Z,7.00
2018-03-14T20:31:40.514Z,7.10
2018-03-14T20:34:08.016Z,6.90
2018-03-14T20:36:34.281Z,6.90
2018-03-14T20:39:00.531Z,6.80
2018-03-14T20:41:27.068Z,6.80
2018-03-14T20:43:53.321Z,6.60
2018-03-14T20:46:19.536Z,6.60
2018-03-14T20:48:46.133Z,6.50
2018-03-14T20:51:12.402Z,6.50
2018-03-14T20:53:38.647Z,6.50
2018-03-14T20:56:05.234Z,6.50
2018-03-14T20:58:31.458Z,6.50
2018-03-14T21:00:57.720Z,6.50
2018-03-14T21:03:23.980Z,6.50
2018-03-14T21:05:50.275Z,6.50
2018-03-14T21:08:16.527Z,6.40
2018-03-14T21:10:42.763Z,6.40
2018-03-14T21:13:08.992Z,6.30
2018-03-14T21:15:35.236Z,6.40
2018-03-14T21:18:01.513Z,6.30
2018-03-14T21:20:28.122Z,6.20
2018-03-14T21:22:54.375Z,6.20
2018-03-14T21:25:20.966Z,6.20
2018-03-14T21:27:47.281Z,6.20
2018-03-14T21:30:13.544Z,6.20
2018-03-14T21:32:39.777Z,6.20
2018-03-14T21:35:06.054Z,6.30
2018-03-14T21:37:32.288Z,6.30
2018-03-14T21:39:58.535Z,6.50
2018-03-14T21:42:24.785Z,6.50
2018-03-14T21:44:51.050Z,6.50
2018-03-14T21:47:17.303Z,6.30
2018-03-14T21:49:43.539Z,6.20
2018-03-14T21:52:10.110Z,6.30
2018-03-14T21:54:36.698Z,6.40
2018-03-14T21:57:15.527Z,6.40
2018-03-14T21:59:42.696Z,6.40
2018-03-14T22:02:08.999Z,6.30
2018-03-14T22:04:35.578Z,6.10
2018-03-14T22:07:01.791Z,5.90
2018-03-14T22:09:28.028Z,6.00
2018-03-14T22:11:54.692Z,6.00
2018-03-14T22:14:21.396Z,5.90
2018-03-14T22:16:47.556Z,5.90
2018-03-14T22:19:14.205Z,5.90
2018-03-14T22:21:40.815Z,5.90
2018-03-14T22:24:07.047Z,5.90
2018-03-14T22:26:33.319Z,5.90
2018-03-14T22:29:00.461Z,5.90
2018-03-14T22:31:26.663Z,5.90
2018-03-14T22:33:52.888Z,5.90
2018-03-14T22:36:19.106Z,6.10
2018-03-14T22:38:45.318Z,6.10
2018-03-14T22:41:11.538Z,6.00
2018-03-14T22:43:37.765Z,5.90
2018-03-14T22:46:03.973Z,5.90
2018-03-14T22:48:30.239Z,5.80
2018-03-14T22:50:56.469Z,5.70
2018-03-14T22:53:22.680Z,5.50
2018-03-14T22:55:48.921Z,5.60
2018-03-14T22:58:15.148Z,5.50
2018-03-14T23:00:41.376Z,5.50
2018-03-14T23:03:07.952Z,5.50
2018-03-14T23:05:34.545Z,5.60
2018-03-14T23:08:00.751Z,5.60
2018-03-14T23:10:27.019Z,5.70
2018-03-14T23:12:53.266Z,5.60
2018-03-14T23:15:19.910Z,5.40
2018-03-14T23:17:46.494Z,5.50
2018-03-14T23:20:12.729Z,5.50
2018-03-14T23:22:38.918Z,5.40
2018-03-14T23:25:20.084Z,5.40
2018-03-14T23:27:46.381Z,5.50
2018-03-14T23:30:12.595Z,5.40
2018-03-14T23:32:38.891Z,5.30
2018-03-14T23:35:05.149Z,5.30
2018-03-14T23:37:31.376Z,5.50
2018-03-14T23:39:57.619Z,5.50
2018-03-14T23:42:24.590Z,5.40
2018-03-14T23:44:51.989Z,5.40
2018-03-14T23:47:18.226Z,5.40
2018-03-14T23:49:44.435Z,5.30
2018-03-14T23:52:10.669Z,5.20
2018-03-14T23:54:36.907Z,5.20
2018-03-14T23:57:03.162Z,5.20
2018-03-14T23:59:29.403Z,5.30
